Terminal Aerodrome Forecast
Issued by NWS Springfield, MO

Home | Current Version | Previous Version | Text Only | Print | Product List | Glossary On
Versions: 1 2 3 4 5 6 7 8 9 10 11 12 13 14 15 16 17 18 19 20 21 22 23 24 25 26 27 28 29 30 31 32 33 34 35 36 37 38 39
000
FTUS43 KSGF 200557 CCB
TAFSGF
TAF COR
KSGF 200557Z 2006/2106 18006KT 3SM BR BKN025
      TEMPO 2006/2010 1SM BR
     FM201000 15009KT 1/2SM FG BKN003
     FM201500 15010KT 3/4SM BR BKN003
     FM201700 17013KT P6SM BKN015
     FM202000 18014KT P6SM SCT040
     FM210000 18009KT P6SM SCT250=

USA.gov is the U.S. government's official web portal to all federal, state and local government web resources and services.